sensor_id;sensor_type;location;lat;lon;timestamp;P1;durP1;ratioP1;P2;durP2;ratioP2
70122;SDS011;57489;37.404;24.920;2023-02-28T00:01:20;14.07;;;6.55;;
70122;SDS011;57489;37.404;24.920;2023-02-28T00:06:21;18.52;;;6.38;;
70122;SDS011;57489;37.404;24.920;2023-02-28T00:11:22;17.40;;;7.13;;
70122;SDS011;57489;37.404;24.920;2023-02-28T00:16:23;19.00;;;6.50;;
70122;SDS011;57489;37.404;24.920;2023-02-28T00:21:23;14.60;;;6.68;;
70122;SDS011;57489;37.404;24.920;2023-02-28T00:26:24;16.63;;;7.43;;
70122;SDS011;57489;37.404;24.920;2023-02-28T00:31:24;13.53;;;6.47;;
70122;SDS011;57489;37.404;24.920;2023-02-28T00:36:25;11.50;;;5.80;;
70122;SDS011;57489;37.404;24.920;2023-02-28T00:41:25;14.23;;;6.60;;
70122;SDS011;57489;37.404;24.920;2023-02-28T00:46:25;18.53;;;7.77;;
70122;SDS011;57489;37.404;24.920;2023-02-28T00:51:26;17.47;;;7.10;;
70122;SDS011;57489;37.404;24.920;2023-02-28T00:56:26;14.97;;;7.17;;
70122;SDS011;57489;37.404;24.920;2023-02-28T01:01:27;13.83;;;7.50;;
70122;SDS011;57489;37.404;24.920;2023-02-28T01:06:27;15.10;;;6.67;;
70122;SDS011;57489;37.404;24.920;2023-02-28T01:11:28;17.37;;;7.23;;
70122;SDS011;57489;37.404;24.920;2023-02-28T01:16:28;16.57;;;7.00;;
70122;SDS011;57489;37.404;24.920;2023-02-28T01:21:29;14.57;;;7.63;;
70122;SDS011;57489;37.404;24.920;2023-02-28T01:26:29;17.43;;;7.97;;
70122;SDS011;57489;37.404;24.920;2023-02-28T01:31:30;14.53;;;7.47;;
70122;SDS011;57489;37.404;24.920;2023-02-28T01:36:30;13.27;;;6.93;;
70122;SDS011;57489;37.404;24.920;2023-02-28T01:41:32;12.32;;;6.32;;
70122;SDS011;57489;37.404;24.920;2023-02-28T01:46:35;10.63;;;6.23;;
70122;SDS011;57489;37.404;24.920;2023-02-28T01:56:49;12.33;;;7.37;;
70122;SDS011;57489;37.404;24.920;2023-02-28T02:01:58;12.40;;;6.27;;
70122;SDS011;57489;37.404;24.920;2023-02-28T02:06:59;12.68;;;6.53;;
70122;SDS011;57489;37.404;24.920;2023-02-28T02:12:01;14.93;;;7.17;;
70122;SDS011;57489;37.404;24.920;2023-02-28T02:17:24;14.00;;;7.13;;
70122;SDS011;57489;37.404;24.920;2023-02-28T02:28:18;14.07;;;7.47;;
70122;SDS011;57489;37.404;24.920;2023-02-28T02:44:15;11.00;;;7.03;;
70122;SDS011;57489;37.404;24.920;2023-02-28T02:49:29;12.57;;;6.90;;
70122;SDS011;57489;37.404;24.920;2023-02-28T02:54:35;14.70;;;6.73;;
70122;SDS011;57489;37.404;24.920;2023-02-28T02:59:39;13.10;;;7.15;;
70122;SDS011;57489;37.404;24.920;2023-02-28T03:04:51;16.20;;;8.13;;
70122;SDS011;57489;37.404;24.920;2023-02-28T03:09:55;13.83;;;7.17;;
70122;SDS011;57489;37.404;24.920;2023-02-28T03:31:38;15.50;;;8.35;;
70122;SDS011;57489;37.404;24.920;2023-02-28T03:36:44;13.50;;;7.20;;
70122;SDS011;57489;37.404;24.920;2023-02-28T03:41:52;13.77;;;7.70;;
70122;SDS011;57489;37.404;24.920;2023-02-28T03:47:03;14.57;;;8.15;;
70122;SDS011;57489;37.404;24.920;2023-02-28T03:52:27;15.77;;;7.77;;
70122;SDS011;57489;37.404;24.920;2023-02-28T03:57:39;13.13;;;7.30;;
70122;SDS011;57489;37.404;24.920;2023-02-28T04:02:44;13.45;;;7.70;;
70122;SDS011;57489;37.404;24.920;2023-02-28T04:07:44;15.27;;;7.77;;
70122;SDS011;57489;37.404;24.920;2023-02-28T04:12:45;16.93;;;8.30;;
70122;SDS011;57489;37.404;24.920;2023-02-28T04:17:45;13.97;;;7.50;;
70122;SDS011;57489;37.404;24.920;2023-02-28T04:22:46;12.33;;;7.30;;
70122;SDS011;57489;37.404;24.920;2023-02-28T04:27:46;12.60;;;8.00;;
70122;SDS011;57489;37.404;24.920;2023-02-28T04:32:46;13.27;;;7.40;;
70122;SDS011;57489;37.404;24.920;2023-02-28T04:37:47;14.70;;;7.83;;
70122;SDS011;57489;37.404;24.920;2023-02-28T04:42:47;14.40;;;7.40;;
70122;SDS011;57489;37.404;24.920;2023-02-28T04:47:48;17.27;;;8.20;;
70122;SDS011;57489;37.404;24.920;2023-02-28T04:52:48;14.73;;;8.53;;
70122;SDS011;57489;37.404;24.920;2023-02-28T04:57:49;15.03;;;8.23;;
70122;SDS011;57489;37.404;24.920;2023-02-28T05:02:49;13.20;;;7.43;;
70122;SDS011;57489;37.404;24.920;2023-02-28T05:07:50;13.50;;;7.53;;
70122;SDS011;57489;37.404;24.920;2023-02-28T05:12:50;14.27;;;7.63;;
70122;SDS011;57489;37.404;24.920;2023-02-28T05:17:50;16.70;;;8.80;;
70122;SDS011;57489;37.404;24.920;2023-02-28T05:22:51;13.63;;;8.87;;
70122;SDS011;57489;37.404;24.920;2023-02-28T05:27:51;15.50;;;8.97;;
70122;SDS011;57489;37.404;24.920;2023-02-28T05:32:52;15.93;;;8.27;;
70122;SDS011;57489;37.404;24.920;2023-02-28T05:37:52;16.27;;;8.80;;
70122;SDS011;57489;37.404;24.920;2023-02-28T05:42:53;15.63;;;8.93;;
70122;SDS011;57489;37.404;24.920;2023-02-28T05:47:53;20.63;;;9.33;;
70122;SDS011;57489;37.404;24.920;2023-02-28T05:52:55;16.73;;;8.98;;
70122;SDS011;57489;37.404;24.920;2023-02-28T05:57:55;20.13;;;9.87;;
70122;SDS011;57489;37.404;24.920;2023-02-28T06:02:55;24.90;;;11.53;;
70122;SDS011;57489;37.404;24.920;2023-02-28T06:07:56;21.57;;;10.23;;
70122;SDS011;57489;37.404;24.920;2023-02-28T06:12:59;22.20;;;11.70;;
70122;SDS011;57489;37.404;24.920;2023-02-28T06:18:00;23.30;;;11.20;;
70122;SDS011;57489;37.404;24.920;2023-02-28T06:23:00;28.10;;;13.27;;
70122;SDS011;57489;37.404;24.920;2023-02-28T06:28:01;23.53;;;12.07;;
70122;SDS011;57489;37.404;24.920;2023-02-28T06:33:01;24.03;;;12.47;;
70122;SDS011;57489;37.404;24.920;2023-02-28T06:38:02;24.53;;;12.10;;
70122;SDS011;57489;37.404;24.920;2023-02-28T06:43:02;27.37;;;10.80;;
70122;SDS011;57489;37.404;24.920;2023-02-28T06:48:03;23.83;;;12.43;;
70122;SDS011;57489;37.404;24.920;2023-02-28T06:53:04;23.03;;;13.10;;
70122;SDS011;57489;37.404;24.920;2023-02-28T06:58:04;31.03;;;11.60;;
70122;SDS011;57489;37.404;24.920;2023-02-28T07:03:05;26.07;;;12.50;;
70122;SDS011;57489;37.404;24.920;2023-02-28T07:08:05;20.90;;;10.67;;
70122;SDS011;57489;37.404;24.920;2023-02-28T07:13:06;21.73;;;10.87;;
70122;SDS011;57489;37.404;24.920;2023-02-28T07:18:08;19.17;;;11.15;;
70122;SDS011;57489;37.404;24.920;2023-02-28T07:23:08;24.87;;;11.43;;
70122;SDS011;57489;37.404;24.920;2023-02-28T07:28:09;23.03;;;11.53;;
70122;SDS011;57489;37.404;24.920;2023-02-28T07:33:09;26.10;;;11.57;;
70122;SDS011;57489;37.404;24.920;2023-02-28T07:38:10;21.07;;;10.90;;
70122;SDS011;57489;37.404;24.920;2023-02-28T07:43:10;19.48;;;10.60;;
70122;SDS011;57489;37.404;24.920;2023-02-28T07:48:11;24.23;;;10.93;;
70122;SDS011;57489;37.404;24.920;2023-02-28T07:53:11;21.03;;;12.20;;
70122;SDS011;57489;37.404;24.920;2023-02-28T07:58:12;20.53;;;11.13;;
70122;SDS011;57489;37.404;24.920;2023-02-28T08:03:12;23.43;;;11.30;;
70122;SDS011;57489;37.404;24.920;2023-02-28T08:08:13;18.20;;;11.00;;
70122;SDS011;57489;37.404;24.920;2023-02-28T08:13:14;21.00;;;11.15;;
70122;SDS011;57489;37.404;24.920;2023-02-28T08:18:15;19.33;;;10.87;;
70122;SDS011;57489;37.404;24.920;2023-02-28T08:23:15;22.83;;;10.87;;
70122;SDS011;57489;37.404;24.920;2023-02-28T08:28:16;21.93;;;11.03;;
70122;SDS011;57489;37.404;24.920;2023-02-28T08:33:16;19.70;;;10.63;;
70122;SDS011;57489;37.404;24.920;2023-02-28T08:38:16;16.38;;;9.55;;
70122;SDS011;57489;37.404;24.920;2023-02-28T08:43:17;21.93;;;10.80;;
70122;SDS011;57489;37.404;24.920;2023-02-28T08:48:17;19.53;;;11.07;;
70122;SDS011;57489;37.404;24.920;2023-02-28T08:53:18;19.23;;;10.63;;
70122;SDS011;57489;37.404;24.920;2023-02-28T08:58:18;21.00;;;11.17;;
70122;SDS011;57489;37.404;24.920;2023-02-28T09:03:19;24.50;;;10.33;;
70122;SDS011;57489;37.404;24.920;2023-02-28T09:08:19;17.10;;;9.77;;
70122;SDS011;57489;37.404;24.920;2023-02-28T09:13:20;19.08;;;10.68;;
70122;SDS011;57489;37.404;24.920;2023-02-28T09:18:20;18.70;;;10.97;;
70122;SDS011;57489;37.404;24.920;2023-02-28T09:23:21;18.77;;;10.57;;
70122;SDS011;57489;37.404;24.920;2023-02-28T09:28:21;20.87;;;10.60;;
70122;SDS011;57489;37.404;24.920;2023-02-28T09:33:23;21.97;;;10.60;;
70122;SDS011;57489;37.404;24.920;2023-02-28T09:38:23;20.65;;;10.98;;
70122;SDS011;57489;37.404;24.920;2023-02-28T09:43:25;20.63;;;10.50;;
70122;SDS011;57489;37.404;24.920;2023-02-28T09:48:32;22.25;;;9.68;;
70122;SDS011;57489;37.404;24.920;2023-02-28T09:53:37;19.03;;;9.53;;
70122;SDS011;57489;37.404;24.920;2023-02-28T09:58:42;17.95;;;10.40;;
70122;SDS011;57489;37.404;24.920;2023-02-28T10:09:27;20.50;;;9.47;;
70122;SDS011;57489;37.404;24.920;2023-02-28T10:14:33;18.92;;;10.15;;
70122;SDS011;57489;37.404;24.920;2023-02-28T10:24:51;18.10;;;9.97;;
70122;SDS011;57489;37.404;24.920;2023-02-28T10:29:57;18.38;;;9.57;;
70122;SDS011;57489;37.404;24.920;2023-02-28T10:45:20;15.70;;;9.47;;
70122;SDS011;57489;37.404;24.920;2023-02-28T10:50:31;18.00;;;9.07;;
70122;SDS011;57489;37.404;24.920;2023-02-28T10:55:32;17.23;;;9.33;;
70122;SDS011;57489;37.404;24.920;2023-02-28T11:00:34;16.50;;;10.40;;
70122;SDS011;57489;37.404;24.920;2023-02-28T11:05:35;13.15;;;9.00;;
70122;SDS011;57489;37.404;24.920;2023-02-28T11:10:36;15.05;;;8.60;;
70122;SDS011;57489;37.404;24.920;2023-02-28T11:15:38;20.40;;;9.83;;
70122;SDS011;57489;37.404;24.920;2023-02-28T11:20:38;15.27;;;8.13;;
70122;SDS011;57489;37.404;24.920;2023-02-28T11:25:40;16.23;;;8.00;;
70122;SDS011;57489;37.404;24.920;2023-02-28T11:30:49;17.02;;;9.00;;
70122;SDS011;57489;37.404;24.920;2023-02-28T11:46:37;15.88;;;9.70;;
70122;SDS011;57489;37.404;24.920;2023-02-28T11:52:02;13.80;;;9.10;;
70122;SDS011;57489;37.404;24.920;2023-02-28T12:02:50;16.00;;;9.05;;
70122;SDS011;57489;37.404;24.920;2023-02-28T12:19:20;19.52;;;9.45;;
70122;SDS011;57489;37.404;24.920;2023-02-28T12:24:51;20.77;;;9.50;;
70122;SDS011;57489;37.404;24.920;2023-02-28T12:30:03;22.73;;;9.50;;
70122;SDS011;57489;37.404;24.920;2023-02-28T12:35:14;19.25;;;10.30;;
70122;SDS011;57489;37.404;24.920;2023-02-28T12:40:20;17.40;;;9.35;;
70122;SDS011;57489;37.404;24.920;2023-02-28T12:45:26;22.57;;;10.90;;
70122;SDS011;57489;37.404;24.920;2023-02-28T12:50:40;23.63;;;9.50;;
70122;SDS011;57489;37.404;24.920;2023-02-28T13:01:00;21.20;;;10.40;;
70122;SDS011;57489;37.404;24.920;2023-02-28T13:12:00;21.50;;;9.45;;
70122;SDS011;57489;37.404;24.920;2023-02-28T13:17:02;21.40;;;9.97;;
70122;SDS011;57489;37.404;24.920;2023-02-28T13:22:03;23.77;;;10.00;;
70122;SDS011;57489;37.404;24.920;2023-02-28T13:42:22;22.58;;;10.32;;
70122;SDS011;57489;37.404;24.920;2023-02-28T13:47:38;20.43;;;10.97;;
70122;SDS011;57489;37.404;24.920;2023-02-28T14:09:01;17.03;;;10.60;;
70122;SDS011;57489;37.404;24.920;2023-02-28T14:19:36;22.20;;;10.00;;
70122;SDS011;57489;37.404;24.920;2023-02-28T14:40:17;22.60;;;9.40;;
70122;SDS011;57489;37.404;24.920;2023-02-28T14:45:25;19.42;;;9.43;;
70122;SDS011;57489;37.404;24.920;2023-02-28T14:50:30;15.65;;;9.23;;
70122;SDS011;57489;37.404;24.920;2023-02-28T14:55:34;19.73;;;9.33;;
70122;SDS011;57489;37.404;24.920;2023-02-28T15:00:36;23.27;;;9.25;;
70122;SDS011;57489;37.404;24.920;2023-02-28T15:05:56;18.17;;;9.45;;
70122;SDS011;57489;37.404;24.920;2023-02-28T15:11:00;17.67;;;8.93;;
70122;SDS011;57489;37.404;24.920;2023-02-28T15:16:04;17.33;;;8.40;;
70122;SDS011;57489;37.404;24.920;2023-02-28T15:21:11;18.05;;;8.65;;
70122;SDS011;57489;37.404;24.920;2023-02-28T15:26:19;18.45;;;8.30;;
70122;SDS011;57489;37.404;24.920;2023-02-28T15:31:29;15.93;;;7.93;;
70122;SDS011;57489;37.404;24.920;2023-02-28T15:36:34;16.58;;;8.07;;
70122;SDS011;57489;37.404;24.920;2023-02-28T15:41:37;20.10;;;8.97;;
70122;SDS011;57489;37.404;24.920;2023-02-28T15:46:38;14.95;;;7.72;;
70122;SDS011;57489;37.404;24.920;2023-02-28T15:51:40;15.18;;;8.25;;
70122;SDS011;57489;37.404;24.920;2023-02-28T15:56:49;16.33;;;8.27;;
70122;SDS011;57489;37.404;24.920;2023-02-28T16:07:13;18.90;;;8.60;;
70122;SDS011;57489;37.404;24.920;2023-02-28T16:12:14;13.80;;;8.13;;
70122;SDS011;57489;37.404;24.920;2023-02-28T16:17:21;15.60;;;9.53;;
70122;SDS011;57489;37.404;24.920;2023-02-28T16:22:26;14.93;;;7.85;;
70122;SDS011;57489;37.404;24.920;2023-02-28T16:27:30;17.70;;;9.03;;
70122;SDS011;57489;37.404;24.920;2023-02-28T16:32:35;17.43;;;8.80;;
70122;SDS011;57489;37.404;24.920;2023-02-28T16:37:36;17.70;;;8.70;;
70122;SDS011;57489;37.404;24.920;2023-02-28T16:42:36;16.70;;;7.90;;
70122;SDS011;57489;37.404;24.920;2023-02-28T16:47:39;20.15;;;8.23;;
70122;SDS011;57489;37.404;24.920;2023-02-28T16:52:40;18.03;;;8.37;;
70122;SDS011;57489;37.404;24.920;2023-02-28T16:57:40;14.80;;;7.83;;
70122;SDS011;57489;37.404;24.920;2023-02-28T17:02:41;18.53;;;7.80;;
70122;SDS011;57489;37.404;24.920;2023-02-28T17:07:41;16.45;;;8.32;;
70122;SDS011;57489;37.404;24.920;2023-02-28T17:12:42;14.60;;;7.60;;
70122;SDS011;57489;37.404;24.920;2023-02-28T17:17:45;17.70;;;7.68;;
70122;SDS011;57489;37.404;24.920;2023-02-28T17:22:47;16.33;;;7.93;;
70122;SDS011;57489;37.404;24.920;2023-02-28T17:27:47;17.17;;;8.10;;
70122;SDS011;57489;37.404;24.920;2023-02-28T17:32:48;15.77;;;8.20;;
70122;SDS011;57489;37.404;24.920;2023-02-28T17:37:48;21.10;;;8.83;;
70122;SDS011;57489;37.404;24.920;2023-02-28T17:42:49;16.60;;;8.10;;
70122;SDS011;57489;37.404;24.920;2023-02-28T17:47:50;19.10;;;8.77;;
70122;SDS011;57489;37.404;24.920;2023-02-28T17:52:50;15.40;;;8.27;;
70122;SDS011;57489;37.404;24.920;2023-02-28T17:57:50;15.30;;;8.43;;
70122;SDS011;57489;37.404;24.920;2023-02-28T18:02:51;17.27;;;9.20;;
70122;SDS011;57489;37.404;24.920;2023-02-28T18:07:51;17.03;;;9.80;;
70122;SDS011;57489;37.404;24.920;2023-02-28T18:12:52;18.33;;;9.83;;
70122;SDS011;57489;37.404;24.920;2023-02-28T18:17:53;21.63;;;11.65;;
70122;SDS011;57489;37.404;24.920;2023-02-28T18:22:53;19.40;;;9.57;;
70122;SDS011;57489;37.404;24.920;2023-02-28T18:27:54;21.90;;;10.43;;
70122;SDS011;57489;37.404;24.920;2023-02-28T18:32:54;23.87;;;11.83;;
70122;SDS011;57489;37.404;24.920;2023-02-28T18:37:55;22.27;;;11.07;;
70122;SDS011;57489;37.404;24.920;2023-02-28T18:42:55;21.92;;;10.38;;
70122;SDS011;57489;37.404;24.920;2023-02-28T18:47:56;20.27;;;9.93;;
70122;SDS011;57489;37.404;24.920;2023-02-28T18:52:56;19.70;;;10.57;;
70122;SDS011;57489;37.404;24.920;2023-02-28T18:57:57;18.77;;;11.17;;
70122;SDS011;57489;37.404;24.920;2023-02-28T19:02:57;22.50;;;10.97;;
70122;SDS011;57489;37.404;24.920;2023-02-28T19:07:58;21.50;;;11.00;;
70122;SDS011;57489;37.404;24.920;2023-02-28T19:13:01;17.73;;;9.70;;
70122;SDS011;57489;37.404;24.920;2023-02-28T19:18:02;17.60;;;9.63;;
70122;SDS011;57489;37.404;24.920;2023-02-28T19:23:02;22.48;;;10.45;;
70122;SDS011;57489;37.404;24.920;2023-02-28T19:28:03;17.83;;;9.93;;
70122;SDS011;57489;37.404;24.920;2023-02-28T19:33:03;22.13;;;10.57;;
70122;SDS011;57489;37.404;24.920;2023-02-28T19:38:04;18.63;;;10.53;;
70122;SDS011;57489;37.404;24.920;2023-02-28T19:43:04;21.60;;;10.87;;
70122;SDS011;57489;37.404;24.920;2023-02-28T19:48:05;17.85;;;9.63;;
70122;SDS011;57489;37.404;24.920;2023-02-28T19:53:06;20.70;;;9.80;;
70122;SDS011;57489;37.404;24.920;2023-02-28T19:58:06;18.20;;;10.13;;
70122;SDS011;57489;37.404;24.920;2023-02-28T20:03:07;18.93;;;9.10;;
70122;SDS011;57489;37.404;24.920;2023-02-28T20:08:07;17.67;;;9.50;;
70122;SDS011;57489;37.404;24.920;2023-02-28T20:13:08;19.50;;;9.33;;
70122;SDS011;57489;37.404;24.920;2023-02-28T20:18:08;17.63;;;9.83;;
70122;SDS011;57489;37.404;24.920;2023-02-28T20:23:08;18.27;;;9.57;;
70122;SDS011;57489;37.404;24.920;2023-02-28T20:28:09;17.40;;;9.27;;
70122;SDS011;57489;37.404;24.920;2023-02-28T20:33:09;15.97;;;9.53;;
70122;SDS011;57489;37.404;24.920;2023-02-28T20:38:10;14.63;;;8.93;;
70122;SDS011;57489;37.404;24.920;2023-02-28T20:43:10;16.30;;;9.13;;
70122;SDS011;57489;37.404;24.920;2023-02-28T20:48:11;14.80;;;9.33;;
70122;SDS011;57489;37.404;24.920;2023-02-28T20:53:11;19.47;;;9.70;;
70122;SDS011;57489;37.404;24.920;2023-02-28T20:58:12;12.97;;;8.07;;
70122;SDS011;57489;37.404;24.920;2023-02-28T21:03:12;16.93;;;9.67;;
70122;SDS011;57489;37.404;24.920;2023-02-28T21:08:13;14.97;;;9.03;;
70122;SDS011;57489;37.404;24.920;2023-02-28T21:13:13;15.87;;;9.53;;
70122;SDS011;57489;37.404;24.920;2023-02-28T21:18:13;15.70;;;10.40;;
70122;SDS011;57489;37.404;24.920;2023-02-28T21:23:14;16.73;;;9.93;;
70122;SDS011;57489;37.404;24.920;2023-02-28T21:28:14;14.37;;;9.30;;
70122;SDS011;57489;37.404;24.920;2023-02-28T21:33:15;15.50;;;9.37;;
70122;SDS011;57489;37.404;24.920;2023-02-28T21:38:15;14.90;;;9.17;;
70122;SDS011;57489;37.404;24.920;2023-02-28T21:43:15;15.83;;;10.03;;
70122;SDS011;57489;37.404;24.920;2023-02-28T21:48:16;13.70;;;9.13;;
70122;SDS011;57489;37.404;24.920;2023-02-28T21:53:16;14.87;;;9.10;;
70122;SDS011;57489;37.404;24.920;2023-02-28T21:58:17;17.13;;;9.57;;
70122;SDS011;57489;37.404;24.920;2023-02-28T22:03:17;16.27;;;8.97;;
70122;SDS011;57489;37.404;24.920;2023-02-28T22:08:18;17.67;;;8.80;;
70122;SDS011;57489;37.404;24.920;2023-02-28T22:13:18;16.73;;;10.10;;
70122;SDS011;57489;37.404;24.920;2023-02-28T22:18:19;15.73;;;9.50;;
70122;SDS011;57489;37.404;24.920;2023-02-28T22:23:19;16.47;;;9.63;;
70122;SDS011;57489;37.404;24.920;2023-02-28T22:28:20;15.17;;;9.40;;
70122;SDS011;57489;37.404;24.920;2023-02-28T22:33:21;15.98;;;9.60;;
70122;SDS011;57489;37.404;24.920;2023-02-28T22:38:22;14.90;;;8.50;;
70122;SDS011;57489;37.404;24.920;2023-02-28T22:43:23;17.03;;;9.70;;
70122;SDS011;57489;37.404;24.920;2023-02-28T22:48:23;13.80;;;8.47;;
70122;SDS011;57489;37.404;24.920;2023-02-28T22:53:23;14.70;;;8.67;;
70122;SDS011;57489;37.404;24.920;2023-02-28T22:58:24;15.27;;;10.03;;
70122;SDS011;57489;37.404;24.920;2023-02-28T23:03:24;16.83;;;9.40;;
70122;SDS011;57489;37.404;24.920;2023-02-28T23:08:25;14.00;;;8.83;;
70122;SDS011;57489;37.404;24.920;2023-02-28T23:13:26;15.43;;;8.37;;
70122;SDS011;57489;37.404;24.920;2023-02-28T23:18:26;15.03;;;9.10;;
70122;SDS011;57489;37.404;24.920;2023-02-28T23:23:26;17.03;;;9.67;;
70122;SDS011;57489;37.404;24.920;2023-02-28T23:28:27;17.00;;;9.10;;
70122;SDS011;57489;37.404;24.920;2023-02-28T23:33:27;13.93;;;9.23;;
70122;SDS011;57489;37.404;24.920;2023-02-28T23:38:28;14.37;;;8.43;;
70122;SDS011;57489;37.404;24.920;2023-02-28T23:43:28;14.67;;;8.63;;
70122;SDS011;57489;37.404;24.920;2023-02-28T23:48:29;15.70;;;10.13;;
70122;SDS011;57489;37.404;24.920;2023-02-28T23:53:30;13.98;;;9.55;;
70122;SDS011;57489;37.404;24.920;2023-02-28T23:58:30;15.10;;;9.07;;
